Energy Challenger — MJUV7 — position and weather

sailwx.info

Track history (hours):
 
Tides and Currents Weather Stations Pressure Air Temp Water Temp Dewpoint Dewpoint Depression Visibility Wind Speed Wind Dir Waves Ship Positions

Energy Challenger

Last reported at 2018-Jan-10 14:19 UTC. Time now 2018-Jan-21 18:05 UTC.
Position N 33°41' W 118°14'.
Warning: this ship's position is 11 days out of date.

Length 228 m; draft 9.7 m.

Type: Tanker. MMSI: 235009400.

Date/timePositionNaut miles runAvg speedWind from/ knotsBaromVisibWave heightAir tempDewpointWater temp
2018-Jan-10 14:19N 33°41' W 118°14'2 4.8
2018-Jan-10 14:00N 33°40' W 118°12'4 0.1
2018-Jan-08 21:07N 33°44' W 118°12'2 6.4
2018-Jan-08 20:47N 33°42' W 118°10'2 7.6
2018-Jan-08 20:30N 33°42' W 118°08'0 0.3
2018-Jan-08 19:53N 33°42' W 118°07'0 0.0
2018-Jan-08 19:29N 33°42' W 118°07'0 0.1
2018-Jan-08 18:59N 33°42' W 118°08'0 0.0
2018-Jan-08 18:29N 33°42' W 118°08'0 0.1
2018-Jan-08 17:59N 33°42' W 118°08'0 0.0
2018-Jan-08 17:17N 33°42' W 118°08'0 0.1
2018-Jan-08 16:53N 33°42' W 118°08'0 0.1
2018-Jan-08 14:35N 33°42' W 118°07'0 0.0
2018-Jan-08 14:29N 33°42' W 118°07'0 0.0
2018-Jan-08 13:59N 33°42' W 118°07'0 0.1
2018-Jan-08 11:59N 33°42' W 118°07'0 0.0
2018-Jan-08 09:11N 33°42' W 118°07'0 0.0
2018-Jan-08 08:47N 33°42' W 118°07'0 0.0
2018-Jan-08 07:23N 33°42' W 118°07'0 0.0
2018-Jan-08 05:17N 33°42' W 118°07'0 0.1
2018-Jan-08 04:53N 33°42' W 118°07'0 0.0
2018-Jan-07 23:47N 33°42' W 118°07'0 0.0
2018-Jan-07 23:23N 33°42' W 118°07'0 0.1
2018-Jan-07 22:53N 33°42' W 118°07'0 0.1
2018-Jan-07 22:29N 33°42' W 118°07'0 0.0
2018-Jan-07 21:41N 33°42' W 118°07'0 0.0
2018-Jan-07 21:29N 33°42' W 118°07'0 0.1
2018-Jan-07 20:59N 33°42' W 118°07'10 3.5
2018-Jan-07 18:09N 33°32' W 118°08'1410.9
2018-Jan-07 16:50N 33°18' W 118°02'411.1
2018-Jan-07 16:30N 33°15' W 118°01'4 8.0
2018-Jan-07 16:00N 33°11' W 117°59'611.4
2018-Jan-07 15:29N 33°06' W 117°57'611.8
2018-Jan-07 15:00N 33°00' W 117°55'611.7
2018-Jan-07 14:30N 32°55' W 117°52'611.8
2018-Jan-07 14:00N 32°49' W 117°50'612.0
2018-Jan-07 13:30N 32°44' W 117°47'612.5
2018-Jan-07 13:00N 32°39' W 117°42'612.4
2018-Jan-07 12:30N 32°33' W 117°39'612.5
2018-Jan-07 12:00N 32°27' W 117°38'612.3
2018-Jan-07 11:30N 32°21' W 117°37'4 8.0
2018-Jan-07 11:01N 32°17' W 117°36'3 6.6
2018-Jan-07 10:30N 32°14' W 117°35'9311.8
2018-Jan-07 02:38N 30°46' W 116°59'211.7
2018-Jan-07 02:30N 30°45' W 116°58'1211.8
2018-Jan-07 01:32N 30°34' W 116°54'012.3
2018-Jan-07 01:30N 30°34' W 116°54'4311.8
2018-Jan-06 21:53N 29°53' W 116°37'511.9
2018-Jan-06 21:30N 29°49' W 116°35'612.1
2018-Jan-06 21:00N 29°43' W 116°33'3112.2
2018-Jan-06 18:29N 29°14' W 116°21'2212.1
2018-Jan-06 16:42N 28°54' W 116°13'11111.7
2018-Jan-06 07:16N 27°17' W 115°12'  
Track history (hours):
 
Tides and Currents Weather Stations Pressure Air Temp Water Temp Dewpoint Dewpoint Depression Visibility Wind Speed Wind Dir Waves Ship Positions

Energy Challenger

Last reported at 2018-Jan-10 14:19 UTC. Time now 2018-Jan-21 18:05 UTC.
Position N 33°41' W 118°14'.
Warning: this ship's position is 11 days out of date.

Length 228 m; draft 9.7 m.

Type: Tanker. MMSI: 235009400.

Date/timePositionNaut miles runAvg speedWind from/ knotsBaromVisibWave heightAir tempDewpointWater temp
2018-Jan-10 14:19N 33°41' W 118°14'2 4.8
2018-Jan-10 14:00N 33°40' W 118°12'4 0.1
2018-Jan-08 21:07N 33°44' W 118°12'2 6.4
2018-Jan-08 20:47N 33°42' W 118°10'2 7.6
2018-Jan-08 20:30N 33°42' W 118°08'0 0.3
2018-Jan-08 19:53N 33°42' W 118°07'0 0.0
2018-Jan-08 19:29N 33°42' W 118°07'0 0.1
2018-Jan-08 18:59N 33°42' W 118°08'0 0.0
2018-Jan-08 18:29N 33°42' W 118°08'0 0.1
2018-Jan-08 17:59N 33°42' W 118°08'0 0.0
2018-Jan-08 17:17N 33°42' W 118°08'0 0.1
2018-Jan-08 16:53N 33°42' W 118°08'0 0.1
2018-Jan-08 14:35N 33°42' W 118°07'0 0.0
2018-Jan-08 14:29N 33°42' W 118°07'0 0.0
2018-Jan-08 13:59N 33°42' W 118°07'0 0.1
2018-Jan-08 11:59N 33°42' W 118°07'0 0.0
2018-Jan-08 09:11N 33°42' W 118°07'0 0.0
2018-Jan-08 08:47N 33°42' W 118°07'0 0.0
2018-Jan-08 07:23N 33°42' W 118°07'0 0.0
2018-Jan-08 05:17N 33°42' W 118°07'0 0.1
2018-Jan-08 04:53N 33°42' W 118°07'0 0.0
2018-Jan-07 23:47N 33°42' W 118°07'0 0.0
2018-Jan-07 23:23N 33°42' W 118°07'0 0.1
2018-Jan-07 22:53N 33°42' W 118°07'0 0.1
2018-Jan-07 22:29N 33°42' W 118°07'0 0.0
2018-Jan-07 21:41N 33°42' W 118°07'0 0.0
2018-Jan-07 21:29N 33°42' W 118°07'0 0.1
2018-Jan-07 20:59N 33°42' W 118°07'10 3.5
2018-Jan-07 18:09N 33°32' W 118°08'1410.9
2018-Jan-07 16:50N 33°18' W 118°02'411.1
2018-Jan-07 16:30N 33°15' W 118°01'4 8.0
2018-Jan-07 16:00N 33°11' W 117°59'611.4
2018-Jan-07 15:29N 33°06' W 117°57'611.8
2018-Jan-07 15:00N 33°00' W 117°55'611.7
2018-Jan-07 14:30N 32°55' W 117°52'611.8
2018-Jan-07 14:00N 32°49' W 117°50'612.0
2018-Jan-07 13:30N 32°44' W 117°47'612.5
2018-Jan-07 13:00N 32°39' W 117°42'612.4
2018-Jan-07 12:30N 32°33' W 117°39'612.5
2018-Jan-07 12:00N 32°27' W 117°38'612.3
2018-Jan-07 11:30N 32°21' W 117°37'4 8.0
2018-Jan-07 11:01N 32°17' W 117°36'3 6.6
2018-Jan-07 10:30N 32°14' W 117°35'9311.8
2018-Jan-07 02:38N 30°46' W 116°59'211.7
2018-Jan-07 02:30N 30°45' W 116°58'1211.8
2018-Jan-07 01:32N 30°34' W 116°54'012.3
2018-Jan-07 01:30N 30°34' W 116°54'4311.8
2018-Jan-06 21:53N 29°53' W 116°37'511.9
2018-Jan-06 21:30N 29°49' W 116°35'612.1
2018-Jan-06 21:00N 29°43' W 116°33'3112.2
2018-Jan-06 18:29N 29°14' W 116°21'2212.1
2018-Jan-06 16:42N 28°54' W 116°13'11111.7
2018-Jan-06 07:16N 27°17' W 115°12'  

Dump ship's entire track history